createdAt,value
2022-09-12T00:05:42.258Z,3.17
2022-09-12T00:15:46.161Z,1.98
2022-09-12T00:25:51.627Z,2.40
2022-09-12T00:35:54.822Z,2.95
2022-09-12T00:46:01.218Z,2.63
2022-09-12T00:56:04.324Z,2.97
2022-09-12T01:06:16.377Z,3.28
2022-09-12T01:16:21.461Z,4.47
2022-09-12T01:26:43.810Z,3.53
2022-09-12T01:37:01.666Z,4.10
2022-09-12T01:47:10.475Z,3.70
2022-09-12T01:57:21.952Z,3.55
2022-09-12T02:07:29.978Z,3.10
2022-09-12T02:17:41.692Z,3.22
2022-09-12T02:27:49.717Z,4.72
2022-09-12T02:38:01.441Z,3.78
2022-09-12T02:48:12.813Z,3.65
2022-09-12T02:58:24.325Z,4.25
2022-09-12T03:09:00.717Z,3.42
2022-09-12T03:19:24.133Z,4.13
2022-09-12T03:29:28.519Z,5.85
2022-09-12T03:39:33.444Z,5.43
2022-09-12T03:49:36.523Z,6.72
2022-09-12T03:59:41.175Z,6.78
2022-09-12T04:09:44.409Z,6.07
2022-09-12T04:19:49.069Z,7.43
2022-09-12T04:29:52.099Z,8.43
2022-09-12T04:39:58.430Z,6.93
2022-09-12T04:50:01.866Z,8.35
2022-09-12T05:00:08.462Z,6.50
2022-09-12T05:10:15.897Z,8.85
2022-09-12T05:20:21.051Z,7.60
2022-09-12T05:30:29.069Z,9.52
2022-09-12T05:40:40.022Z,9.68
2022-09-12T05:50:44.368Z,8.93
2022-09-12T06:00:52.283Z,9.32
2022-09-12T06:11:05.042Z,9.60
2022-09-12T06:21:14.898Z,10.13
2022-09-12T06:31:20.426Z,12.65
2022-09-12T06:41:26.343Z,14.43
2022-09-12T06:51:30.053Z,19.65
2022-09-12T07:01:34.854Z,7.95
2022-09-12T07:11:39.945Z,10.48
2022-09-12T07:21:47.656Z,8.70
2022-09-12T07:31:56.126Z,9.20
2022-09-12T07:42:00.975Z,7.35
2022-09-12T07:52:08.045Z,6.28
2022-09-12T08:02:17.030Z,4.35
2022-09-12T08:12:20.754Z,5.47
2022-09-12T08:22:26.322Z,4.80
2022-09-12T08:32:32.645Z,4.35
2022-09-12T08:42:53.217Z,2.65
2022-09-12T08:52:59.514Z,2.95
2022-09-12T09:03:44.618Z,2.50
2022-09-12T09:14:37.837Z,3.00
2022-09-12T09:24:50.379Z,2.10
2022-09-12T09:45:33.398Z,3.10
2022-09-12T09:55:41.971Z,3.28
2022-09-12T10:06:01.600Z,2.90
2022-09-12T10:16:13.081Z,2.67
2022-09-12T10:26:44.774Z,1.48
2022-09-12T10:36:54.406Z,2.08
2022-09-12T10:47:37.557Z,2.30
2022-09-12T10:58:15.101Z,2.20
2022-09-12T11:08:54.877Z,2.25
2022-09-12T11:19:26.096Z,2.03
2022-09-12T11:30:04.173Z,2.78
2022-09-12T12:24:19.719Z,2.00
2022-09-12T12:34:36.538Z,1.73
2022-09-12T12:44:56.902Z,1.70
2022-09-12T12:55:06.929Z,1.98
2022-09-12T13:16:32.262Z,1.55
2022-09-12T13:26:45.751Z,1.20
2022-09-12T13:37:21.133Z,1.27
2022-09-12T13:47:31.322Z,1.95
2022-09-12T13:57:47.727Z,1.60
2022-09-12T14:08:11.303Z,1.48
2022-09-12T14:18:27.286Z,1.88
2022-09-12T14:28:31.672Z,2.30
2022-09-12T14:38:41.109Z,2.30
2022-09-12T14:48:53.434Z,1.77
2022-09-12T14:59:28.880Z,1.65
2022-09-12T15:09:32.065Z,2.08
2022-09-12T15:19:36.911Z,2.63
2022-09-12T15:29:56.937Z,1.05
2022-09-12T15:40:12.363Z,2.67
2022-09-12T15:50:15.708Z,2.72
2022-09-12T16:00:21.175Z,4.70
2022-09-12T16:10:26.268Z,2.63
2022-09-12T16:20:31.682Z,2.88
2022-09-12T16:30:35.346Z,3.67
2022-09-12T16:40:39.972Z,3.70
2022-09-12T16:50:43.182Z,4.35
2022-09-12T17:00:47.804Z,4.75
2022-09-12T17:10:51.083Z,4.75
2022-09-12T17:20:55.442Z,3.70
2022-09-12T17:31:00.274Z,3.88
2022-09-12T17:41:09.209Z,5.47
2022-09-12T17:51:14.265Z,3.88
2022-09-12T18:01:37.439Z,3.75
2022-09-12T18:11:40.514Z,3.38
2022-09-12T18:21:45.273Z,4.22
2022-09-12T18:31:56.414Z,3.78
2022-09-12T18:52:24.390Z,3.67
2022-09-12T19:02:28.891Z,3.40
2022-09-12T19:12:51.703Z,3.33
2022-09-12T19:23:26.195Z,2.17
2022-09-12T19:34:25.991Z,1.70
2022-09-12T19:44:44.199Z,2.60
2022-09-12T19:55:09.708Z,2.20
2022-09-12T20:05:27.603Z,1.92
2022-09-12T20:15:33.865Z,2.30
2022-09-12T20:26:10.529Z,3.13
2022-09-12T20:36:17.649Z,2.90
2022-09-12T20:46:30.236Z,2.33
2022-09-12T21:18:17.623Z,2.03
2022-09-12T21:28:25.271Z,2.33
2022-09-12T21:38:35.859Z,1.52
2022-09-12T21:48:43.234Z,2.90
2022-09-12T21:58:52.761Z,2.20
2022-09-12T22:19:26.910Z,2.30
2022-09-12T22:29:38.863Z,3.00
2022-09-12T22:39:55.507Z,2.03
2022-09-12T22:50:02.351Z,3.17
2022-09-12T23:00:29.884Z,2.22
2022-09-12T23:10:38.548Z,2.88
2022-09-12T23:20:59.451Z,2.10
2022-09-12T23:31:06.107Z,2.63
2022-09-12T23:41:18.795Z,2.58
2022-09-12T23:51:24.258Z,2.58
